Time;durP1;ratioP1;P1;durP2;ratioP2;P2;SDS_P1;SDS_P2;PMS_P1;PMS_P2;Temp;Humidity;BMP_temperature;BMP_pressure;BME280_temperature;BME280_humidity;BME280_pressure;Samples;Min_cycle;Max_cycle;Signal;HPM_P1;HPM_P2
2022/02/25 00:02:20;;;;;;;12.48;2.50;;;;;;;6.53;100.00;97995.44;5010783;28;20041;-61
2022/02/25 00:04:45;;;;;;;16.83;2.88;;;;;;;6.42;100.00;97991.44;4992408;28;20037;-59
2022/02/25 00:07:10;;;;;;;12.50;2.65;;;;;;;7.46;100.00;97991.28;5006914;28;20037;-60
2022/02/25 00:09:36;;;;;;;12.70;2.63;;;;;;;7.15;100.00;97983.50;5010462;28;20456;-62
2022/02/25 00:12:01;;;;;;;12.25;2.65;;;;;;;6.68;100.00;97986.44;5007479;28;20502;-58
2022/02/25 00:14:27;;;;;;;12.85;2.70;;;;;;;6.07;100.00;97987.94;5008145;28;20022;-61
2022/02/25 00:16:52;;;;;;;12.70;2.70;;;;;;;7.16;100.00;97992.13;5007239;28;20037;-61
2022/02/25 00:19:18;;;;;;;10.90;2.63;;;;;;;7.29;100.00;97990.88;5007915;28;20026;-62
2022/02/25 00:21:43;;;;;;;14.57;2.85;;;;;;;7.30;100.00;97990.84;5006689;28;20070;-59
2022/02/25 00:24:09;;;;;;;14.45;3.22;;;;;;;6.36;100.00;97985.50;5008956;28;20029;-60
2022/02/25 00:26:35;;;;;;;9.73;2.40;;;;;;;7.74;100.00;98006.03;5008885;28;20038;-60
2022/02/25 00:29:02;;;;;;;10.70;2.30;;;;;;;7.39;100.00;97994.94;5005964;28;20907;-59
2022/02/25 00:31:28;;;;;;;12.73;2.60;;;;;;;6.33;100.00;97995.94;5007891;28;20064;-60
2022/02/25 00:33:53;;;;;;;12.35;2.40;;;;;;;6.28;100.00;97997.78;5009084;28;20980;-62
2022/02/25 00:36:18;;;;;;;13.60;2.75;;;;;;;5.56;100.00;97999.38;5006202;28;20491;-62
2022/02/25 00:38:44;;;;;;;15.20;3.05;;;;;;;7.30;100.00;98000.38;5009282;28;20029;-63
2022/02/25 00:41:09;;;;;;;14.52;2.97;;;;;;;7.12;100.00;97997.38;5007766;28;20104;-60
2022/02/25 00:43:34;;;;;;;11.63;2.47;;;;;;;6.11;100.00;97999.94;5008018;28;20068;-60
2022/02/25 00:45:59;;;;;;;15.65;3.10;;;;;;;7.15;100.00;98001.66;5006973;28;20041;-61
2022/02/25 00:48:25;;;;;;;13.73;2.92;;;;;;;6.21;100.00;98004.00;5005251;28;20030;-60
2022/02/25 00:50:50;;;;;;;13.25;2.88;;;;;;;7.19;100.00;97992.03;5008162;28;20432;-62
2022/02/25 00:53:16;;;;;;;10.40;2.35;;;;;;;7.28;100.00;98007.34;5006938;28;20144;-64
2022/02/25 00:55:41;;;;;;;9.73;2.40;;;;;;;9.26;100.00;98002.88;5006615;28;20038;-62
2022/02/25 00:58:06;;;;;;;11.27;2.72;;;;;;;7.07;100.00;97988.88;5006543;28;20425;-60
2022/02/25 01:00:32;;;;;;;11.52;2.58;;;;;;;7.37;100.00;98011.41;5006621;28;20135;-63
2022/02/25 01:02:57;;;;;;;11.73;2.80;;;;;;;10.02;100.00;98020.03;5006929;28;20120;-62
2022/02/25 01:05:22;;;;;;;10.40;2.50;;;;;;;10.03;100.00;98024.34;5007391;28;20708;-61
2022/02/25 01:07:48;;;;;;;9.75;2.60;;;;;;;8.48;100.00;98016.78;5007622;28;20014;-61
2022/02/25 01:10:16;;;;;;;8.55;2.47;;;;;;;7.89;100.00;98025.50;5006880;28;20557;-63
2022/02/25 01:12:43;;;;;;;12.48;2.50;;;;;;;10.49;100.00;98034.72;5008535;28;20533;-61
2022/02/25 01:15:10;;;;;;;9.57;2.50;;;;;;;8.78;100.00;98032.28;5007644;28;20881;-62
2022/02/25 01:17:36;;;;;;;11.35;2.55;;;;;;;8.40;100.00;98047.31;5009043;28;20679;-61
2022/02/25 01:20:03;;;;;;;13.75;3.03;;;;;;;7.51;100.00;98043.88;5006549;28;20033;-62
2022/02/25 01:22:28;;;;;;;10.13;2.50;;;;;;;9.42;100.00;98044.81;5004445;28;20057;-60
2022/02/25 01:24:53;;;;;;;14.43;3.25;;;;;;;8.47;100.00;98043.66;5007271;28;21359;-62
2022/02/25 01:27:19;;;;;;;10.10;2.55;;;;;;;7.70;100.00;98040.75;5005917;28;20069;-60
2022/02/25 01:29:45;;;;;;;13.02;3.15;;;;;;;6.78;100.00;98051.00;5007370;28;20045;-61
2022/02/25 01:32:10;;;;;;;12.45;2.90;;;;;;;6.56;100.00;98064.47;5005683;28;20045;-62
2022/02/25 01:34:36;;;;;;;11.88;2.97;;;;;;;7.14;100.00;98063.03;5007243;28;20033;-59
2022/02/25 01:37:02;;;;;;;10.98;2.85;;;;;;;8.75;100.00;98066.16;5006456;28;20659;-62
2022/02/25 01:39:28;;;;;;;12.43;2.60;;;;;;;8.56;100.00;98066.78;5008351;28;20676;-61
2022/02/25 01:41:55;;;;;;;9.15;2.40;;;;;;;6.93;100.00;98068.78;5006731;28;20732;-62
2022/02/25 01:44:22;;;;;;;13.10;2.90;;;;;;;9.82;100.00;98078.09;5007146;28;20048;-61
2022/02/25 01:46:50;;;;;;;10.05;2.38;;;;;;;7.87;100.00;98085.28;5005515;28;20044;-60
2022/02/25 01:49:16;;;;;;;15.98;3.17;;;;;;;6.97;100.00;98080.78;5006372;28;20345;-61
2022/02/25 01:51:42;;;;;;;12.52;2.97;;;;;;;8.00;100.00;98090.13;5007858;28;20120;-62
2022/02/25 01:54:08;;;;;;;13.05;3.08;;;;;;;7.74;100.00;98089.13;5006267;28;20032;-63
2022/02/25 01:56:36;;;;;;;12.98;3.13;;;;;;;7.18;100.00;98105.31;5005719;28;20048;-61
2022/02/25 01:59:02;;;;;;;12.55;2.78;;;;;;;6.25;100.00;98111.84;5007859;28;20034;-64
2022/02/25 02:01:27;;;;;;;9.23;2.40;;;;;;;9.17;100.00;98117.69;5004916;28;20099;-63
2022/02/25 02:03:56;;;;;;;11.82;2.83;;;;;;;8.71;100.00;98116.59;5006444;28;20385;-61
2022/02/25 02:06:22;;;;;;;10.95;2.50;;;;;;;10.35;100.00;98126.56;5005461;28;20034;-61
2022/02/25 02:08:48;;;;;;;13.02;3.10;;;;;;;8.08;100.00;98124.50;5004605;28;20021;-60
2022/02/25 02:11:34;;;;;;;12.43;2.92;;;;;;;8.86;100.00;98124.75;5004440;28;20084;-61
2022/02/25 02:14:01;;;;;;;9.82;2.60;;;;;;;7.45;100.00;98124.50;5007880;28;20029;-62
2022/02/25 02:16:27;;;;;;;12.65;2.70;;;;;;;8.98;100.00;98128.72;5005322;28;20651;-61
2022/02/25 02:18:53;;;;;;;10.45;2.65;;;;;;;7.46;100.00;98123.63;5004053;28;20598;-61
2022/02/25 02:21:23;;;;;;;13.52;3.25;;;;;;;6.71;100.00;98134.13;5006102;28;20121;-59
2022/02/25 02:23:48;;;;;;;11.50;2.97;;;;;;;7.28;100.00;98132.75;5005735;28;20026;-59
2022/02/25 02:26:13;;;;;;;12.00;2.88;;;;;;;6.11;100.00;98135.44;5004945;28;20619;-62
2022/02/25 02:28:39;;;;;;;10.98;2.78;;;;;;;6.55;100.00;98143.13;5007091;28;20166;-60
2022/02/25 02:31:04;;;;;;;14.93;3.53;;;;;;;5.60;100.00;98154.50;5007003;28;20037;-60
2022/02/25 02:33:29;;;;;;;12.02;2.70;;;;;;;7.54;100.00;98162.34;5006044;28;20030;-62
2022/02/25 02:35:55;;;;;;;12.15;2.78;;;;;;;8.30;100.00;98159.34;5006402;28;20061;-60
2022/02/25 02:38:20;;;;;;;11.25;2.97;;;;;;;7.74;100.00;98156.63;5005435;28;20024;-61
2022/02/25 02:40:45;;;;;;;11.52;2.97;;;;;;;8.47;100.00;98160.66;5005433;28;20062;-60
2022/02/25 02:43:12;;;;;;;11.65;2.90;;;;;;;9.09;100.00;98156.16;5006405;28;20053;-59
2022/02/25 02:45:38;;;;;;;8.50;2.25;;;;;;;10.06;100.00;98166.69;5007782;28;20060;-60
2022/02/25 02:48:04;;;;;;;13.93;3.10;;;;;;;6.87;100.00;98157.09;5006969;28;20026;-62
2022/02/25 02:50:30;;;;;;;10.05;2.67;;;;;;;8.24;100.00;98172.53;5006619;28;20057;-62
2022/02/25 02:52:56;;;;;;;13.00;3.10;;;;;;;7.99;100.00;98177.56;5007012;28;20068;-63
2022/02/25 02:55:22;;;;;;;11.30;2.80;;;;;;;10.08;100.00;98188.34;5005378;28;20057;-60
2022/02/25 02:57:48;;;;;;;10.38;2.72;;;;;;;7.45;100.00;98181.59;5005604;28;20079;-63
2022/02/25 03:00:14;;;;;;;11.30;2.60;;;;;;;9.28;100.00;98183.25;5006548;28;20026;-60
2022/02/25 03:02:39;;;;;;;10.32;2.47;;;;;;;10.32;100.00;98191.84;5004778;28;20030;-60
2022/02/25 03:05:05;;;;;;;10.90;2.80;;;;;;;8.23;100.00;98180.38;5004748;28;20049;-61
2022/02/25 03:07:31;;;;;;;13.27;2.88;;;;;;;8.26;100.00;98188.94;5005497;28;20169;-62
2022/02/25 03:09:56;;;;;;;10.50;2.90;;;;;;;7.02;100.00;98202.53;5006201;28;20026;-62
2022/02/25 03:12:22;;;;;;;11.50;3.03;;;;;;;6.69;100.00;98194.66;5007102;28;20072;-61
2022/02/25 03:14:47;;;;;;;13.40;3.25;;;;;;;7.44;100.00;98198.06;5010535;28;20034;-63
2022/02/25 03:17:14;;;;;;;9.27;2.30;;;;;;;8.31;100.00;98199.22;5010306;28;20064;-62
2022/02/25 03:19:41;;;;;;;14.85;3.20;;;;;;;8.43;100.00;98205.81;5010034;28;20025;-61
2022/02/25 03:22:06;;;;;;;15.48;3.50;;;;;;;6.62;100.00;98206.91;5010416;28;20099;-63
2022/02/25 03:24:32;;;;;;;11.50;2.60;;;;;;;8.08;100.00;98212.84;5010132;28;20030;-59
2022/02/25 03:26:57;;;;;;;11.73;2.97;;;;;;;7.67;100.00;98210.47;5008068;28;20057;-62
2022/02/25 03:29:23;;;;;;;13.55;2.92;;;;;;;7.24;100.00;98219.34;5009085;28;20061;-59
2022/02/25 03:31:48;;;;;;;12.35;2.88;;;;;;;8.32;100.00;98226.03;5008364;28;20046;-60
2022/02/25 03:34:13;;;;;;;12.77;3.22;;;;;;;7.20;100.00;98217.69;5008401;28;20025;-60
2022/02/25 03:36:39;;;;;;;11.27;2.85;;;;;;;8.48;100.00;98229.94;5009305;28;20897;-62
2022/02/25 03:39:05;;;;;;;9.52;2.42;;;;;;;10.11;100.00;98240.38;5009677;28;20539;-60
2022/02/25 03:41:31;;;;;;;11.07;2.92;;;;;;;8.58;100.00;98244.38;5006933;28;20042;-60
2022/02/25 03:43:56;;;;;;;14.40;2.97;;;;;;;7.70;100.00;98253.66;5008091;28;20254;-61
2022/02/25 03:46:22;;;;;;;11.32;3.00;;;;;;;7.07;100.00;98263.78;5010424;28;20113;-61
2022/02/25 03:48:47;;;;;;;12.05;2.92;;;;;;;7.06;100.00;98272.50;5009184;28;20056;-62
2022/02/25 03:51:12;;;;;;;11.80;2.83;;;;;;;9.05;100.00;98270.72;5008396;28;20408;-61
2022/02/25 03:53:38;;;;;;;9.50;2.63;;;;;;;9.37;100.00;98275.81;5007003;28;20034;-60
2022/02/25 03:56:03;;;;;;;12.68;3.28;;;;;;;6.98;100.00;98287.34;5006672;28;20069;-62
2022/02/25 03:58:29;;;;;;;13.93;3.05;;;;;;;7.08;100.00;98275.91;5008284;28;20116;-59
2022/02/25 04:00:54;;;;;;;14.73;3.00;;;;;;;7.18;100.00;98288.66;5007565;28;20124;-59
2022/02/25 04:03:20;;;;;;;14.10;3.70;;;;;;;6.18;100.00;98276.03;5007768;28;20128;-61
2022/02/25 04:05:45;;;;;;;14.55;3.60;;;;;;;6.69;100.00;98287.97;5006746;28;20189;-60
2022/02/25 04:08:11;;;;;;;11.25;2.85;;;;;;;7.85;100.00;98297.44;5008605;28;20105;-61
2022/02/25 04:10:36;;;;;;;11.48;2.95;;;;;;;6.40;100.00;98289.44;5007126;28;20052;-59
2022/02/25 04:13:02;;;;;;;15.30;3.75;;;;;;;6.61;100.00;98295.06;5009498;28;20105;-60
2022/02/25 04:15:27;;;;;;;13.05;3.30;;;;;;;6.80;100.00;98306.78;5007890;28;20459;-60
2022/02/25 04:17:52;;;;;;;10.50;2.60;;;;;;;8.61;100.00;98318.84;5008105;28;20448;-61
2022/02/25 04:20:18;;;;;;;14.13;3.30;;;;;;;7.33;100.00;98312.53;5007971;28;20026;-59
2022/02/25 04:22:43;;;;;;;14.23;3.35;;;;;;;6.82;100.00;98314.50;5008074;28;20152;-63
2022/02/25 04:25:09;;;;;;;13.77;3.15;;;;;;;7.48;100.00;98319.09;5006605;28;20029;-62
2022/02/25 04:27:35;;;;;;;14.00;3.20;;;;;;;6.99;100.00;98327.97;5009269;28;20025;-61
2022/02/25 04:30:00;;;;;;;12.43;3.00;;;;;;;6.58;100.00;98327.09;5007554;28;20071;-61
2022/02/25 04:32:26;;;;;;;12.63;3.22;;;;;;;7.36;100.00;98337.53;5008540;28;20042;-60
2022/02/25 04:34:51;;;;;;;14.98;3.50;;;;;;;8.11;100.00;98343.53;5009032;28;20112;-60
2022/02/25 04:37:17;;;;;;;11.27;2.78;;;;;;;7.99;100.00;98337.78;5007716;28;20773;-60
2022/02/25 04:39:43;;;;;;;13.45;2.85;;;;;;;12.01;100.00;98354.16;5008485;28;20032;-61
2022/02/25 04:42:09;;;;;;;11.60;3.00;;;;;;;7.89;100.00;98347.56;5007072;28;20038;-62
2022/02/25 04:44:34;;;;;;;12.00;3.00;;;;;;;7.23;100.00;98349.09;5009321;28;20033;-61
2022/02/25 04:46:59;;;;;;;14.48;3.22;;;;;;;7.61;100.00;98358.59;5007798;28;20137;-62
2022/02/25 04:49:25;;;;;;;13.18;3.28;;;;;;;7.29;100.00;98351.53;5005269;28;20811;-60
2022/02/25 04:51:50;;;;;;;11.73;2.65;;;;;;;7.62;100.00;98344.72;5006249;28;20042;-62
2022/02/25 04:54:15;;;;;;;13.23;3.22;;;;;;;6.69;100.00;98351.06;5007842;28;20026;-60
2022/02/25 04:56:41;;;;;;;10.68;2.80;;;;;;;5.68;100.00;98357.97;5008669;28;20068;-59
2022/02/25 04:59:06;;;;;;;11.65;3.08;;;;;;;5.73;100.00;98361.34;5006832;28;20060;-60
2022/02/25 05:01:31;;;;;;;12.40;3.28;;;;;;;6.70;100.00;98360.53;5005453;28;20121;-62
2022/02/25 05:03:57;;;;;;;18.42;3.25;;;;;;;6.03;100.00;98372.09;5006536;28;20116;-61
2022/02/25 05:06:22;;;;;;;20.40;3.40;;;;;;;5.57;100.00;98371.94;5008771;28;20488;-60
2022/02/25 05:08:48;;;;;;;12.05;3.08;;;;;;;5.85;100.00;98381.03;5008023;28;20025;-59
2022/02/25 05:11:13;;;;;;;13.70;3.30;;;;;;;5.71;100.00;98382.06;5007813;28;20030;-63
2022/02/25 05:13:39;;;;;;;13.05;3.17;;;;;;;5.99;100.00;98384.25;5006360;28;20026;-60
2022/02/25 05:21:32;;;;;;;18.10;3.70;;;;;;;6.51;100.00;98387.69;5005591;28;20619;-60
2022/02/25 05:23:57;;;;;;;14.38;3.50;;;;;;;6.77;100.00;98387.19;5006349;28;20200;-59
2022/02/25 05:26:23;;;;;;;13.63;3.20;;;;;;;6.38;100.00;98392.25;5007510;28;20710;-60
2022/02/25 05:28:49;;;;;;;14.90;3.70;;;;;;;6.32;100.00;98398.41;5006656;28;20021;-59
2022/02/25 05:31:17;;;;;;;14.75;3.75;;;;;;;5.57;100.00;98396.97;5007306;28;20040;-61
2022/02/25 05:33:42;;;;;;;19.38;4.30;;;;;;;4.80;100.00;98414.31;5007497;28;20026;-60
2022/02/25 05:36:08;;;;;;;12.70;3.58;;;;;;;4.18;100.00;98415.78;5006417;28;20049;-61
2022/02/25 05:38:33;;;;;;;14.65;3.75;;;;;;;5.02;100.00;98419.25;5006675;28;20092;-61
2022/02/25 05:40:59;;;;;;;19.88;4.05;;;;;;;5.01;100.00;98420.09;5005634;28;20501;-59
2022/02/25 05:43:24;;;;;;;17.45;4.07;;;;;;;4.77;100.00;98432.44;5006409;28;20025;-60
2022/02/25 05:45:50;;;;;;;18.00;4.43;;;;;;;5.54;100.00;98436.66;5005506;28;20038;-60
2022/02/25 05:48:15;;;;;;;14.48;3.78;;;;;;;5.63;100.00;98433.09;5006566;28;20037;-59
2022/02/25 05:50:41;;;;;;;15.90;3.85;;;;;;;4.92;100.00;98438.31;5006723;28;20033;-61
2022/02/25 05:53:06;;;;;;;16.25;3.97;;;;;;;4.67;100.00;98437.72;5006828;28;20086;-60
2022/02/25 05:55:32;;;;;;;15.93;4.30;;;;;;;4.29;100.00;98437.22;5004637;28;20057;-60
2022/02/25 05:57:57;;;;;;;18.55;4.63;;;;;;;4.68;100.00;98440.28;5007056;28;20045;-60
2022/02/25 06:00:23;;;;;;;17.55;4.22;;;;;;;3.86;100.00;98443.56;5006310;28;20030;-59
2022/02/25 06:02:49;;;;;;;13.63;3.63;;;;;;;4.58;100.00;98444.69;5006464;28;20034;-61
2022/02/25 06:05:15;;;;;;;17.98;3.90;;;;;;;4.71;100.00;98455.75;5005965;28;20057;-59
2022/02/25 06:07:41;;;;;;;16.85;4.28;;;;;;;3.86;100.00;98459.06;5005359;28;20028;-60
2022/02/25 06:10:07;;;;;;;17.80;4.75;;;;;;;3.85;100.00;98469.38;5004616;28;20030;-61
2022/02/25 06:12:32;;;;;;;19.58;4.47;;;;;;;3.78;100.00;98468.56;5006607;28;20523;-59
2022/02/25 06:14:58;;;;;;;24.13;4.90;;;;;;;4.01;100.00;98478.75;5007608;28;20471;-59
2022/02/25 06:17:23;;;;;;;15.95;4.45;;;;;;;4.01;100.00;98473.59;4985598;28;20039;-59
2022/02/25 06:19:49;;;;;;;18.60;4.07;;;;;;;4.66;100.00;98480.78;4987659;28;20096;-61
2022/02/25 06:22:15;;;;;;;23.13;5.22;;;;;;;3.92;100.00;98488.28;4985249;28;20053;-60
2022/02/25 06:24:40;;;;;;;21.15;5.07;;;;;;;4.15;100.00;98482.94;4986261;28;20135;-59
2022/02/25 06:27:05;;;;;;;34.38;7.75;;;;;;;3.89;100.00;98488.28;4985889;28;20051;-60
2022/02/25 06:29:31;;;;;;;23.58;4.90;;;;;;;4.45;100.00;98492.19;4986488;28;20026;-60
2022/02/25 06:31:56;;;;;;;21.50;5.28;;;;;;;3.97;100.00;98492.53;4985120;28;20070;-60
2022/02/25 06:34:21;;;;;;;23.13;5.60;;;;;;;4.00;100.00;98496.81;4987467;28;20054;-60
2022/02/25 06:36:47;;;;;;;20.98;4.97;;;;;;;5.20;100.00;98501.78;4981432;28;20145;-61
2022/02/25 06:39:13;;;;;;;22.90;5.78;;;;;;;4.24;100.00;98499.22;4984205;28;20142;-61
2022/02/25 06:41:39;;;;;;;22.60;5.40;;;;;;;5.17;100.00;98512.16;4985610;28;20123;-59
2022/02/25 06:44:05;;;;;;;21.27;4.70;;;;;;;5.12;100.00;98501.00;4986409;28;20435;-60
2022/02/25 06:46:30;;;;;;;15.85;4.03;;;;;;;5.43;100.00;98508.41;4986978;28;20042;-61
2022/02/25 06:48:55;;;;;;;14.68;3.67;;;;;;;6.12;100.00;98506.63;4992265;28;20061;-60
2022/02/25 06:51:21;;;;;;;14.65;4.13;;;;;;;7.25;100.00;98506.44;4990549;28;20034;-60
2022/02/25 06:53:46;;;;;;;15.55;4.68;;;;;;;6.50;100.00;98506.03;4990372;28;20107;-59
2022/02/25 06:56:12;;;;;;;17.20;3.80;;;;;;;6.60;100.00;98511.06;4989659;28;20129;-62
2022/02/25 06:58:37;;;;;;;17.88;4.18;;;;;;;7.60;100.00;98501.41;4989927;28;20026;-62
2022/02/25 07:01:05;;;;;;;17.60;4.55;;;;;;;7.56;100.00;98494.59;4989446;28;20133;-62
2022/02/25 07:03:31;;;;;;;13.68;3.83;;;;;;;7.29;100.00;98494.25;4991760;28;20584;-62
2022/02/25 07:05:56;;;;;;;16.98;4.05;;;;;;;7.75;100.00;98505.44;4991282;28;20041;-61
2022/02/25 07:08:21;;;;;;;17.63;3.85;;;;;;;7.19;100.00;98506.56;4990918;28;20490;-63
2022/02/25 07:10:47;;;;;;;16.85;4.15;;;;;;;8.62;100.00;98519.03;4989673;28;20665;-62
2022/02/25 07:13:13;;;;;;;16.92;4.20;;;;;;;7.49;100.00;98512.03;4991024;28;20026;-61
2022/02/25 07:15:40;;;;;;;13.85;3.45;;;;;;;8.09;100.00;98516.78;4990901;28;20060;-62
2022/02/25 07:18:06;;;;;;;14.25;3.65;;;;;;;11.28;100.00;98520.63;4989535;28;20146;-62
2022/02/25 07:20:32;;;;;;;13.63;3.38;;;;;;;10.97;100.00;98511.28;4989248;28;20653;-61
2022/02/25 07:22:57;;;;;;;10.93;3.05;;;;;;;9.91;100.00;98522.47;4989898;28;20034;-64
2022/02/25 07:25:23;;;;;;;13.23;3.63;;;;;;;12.04;100.00;98517.88;4989769;28;20128;-61
2022/02/25 07:27:49;;;;;;;11.88;3.30;;;;;;;10.82;100.00;98522.22;4988799;28;20117;-63
2022/02/25 07:30:14;;;;;;;14.07;3.35;;;;;;;9.15;100.00;98522.88;4988667;28;20087;-61
2022/02/25 07:32:40;;;;;;;15.48;3.38;;;;;;;10.73;100.00;98530.34;4991125;28;20034;-61
2022/02/25 07:35:08;;;;;;;12.75;3.33;;;;;;;9.99;100.00;98533.50;4987465;28;20598;-61
2022/02/25 07:37:34;;;;;;;10.13;2.85;;;;;;;13.14;100.00;98536.09;4989857;28;20036;-60
2022/02/25 07:39:59;;;;;;;10.63;2.83;;;;;;;15.17;100.00;98520.53;4987906;28;20026;-62
2022/02/25 07:42:25;;;;;;;9.38;2.60;;;;;;;15.91;100.00;98522.75;4985947;28;20464;-63
2022/02/25 07:44:50;;;;;;;12.25;3.45;;;;;;;12.84;78.30;98528.59;4986849;28;20034;-62
2022/02/25 07:47:17;;;;;;;12.20;3.03;;;;;;;18.18;100.00;98527.94;4989740;28;20042;-64
2022/02/25 07:49:45;;;;;;;12.70;2.95;;;;;;;15.27;77.19;98528.78;4989286;28;20044;-61
2022/02/25 07:52:10;;;;;;;9.63;2.70;;;;;;;16.04;73.20;98530.81;4989091;28;20042;-63
2022/02/25 07:54:36;;;;;;;10.75;3.10;;;;;;;18.38;68.82;98526.66;4988979;28;20095;-61
2022/02/25 07:57:01;;;;;;;9.30;3.00;;;;;;;16.91;62.51;98529.50;4986848;28;20034;-62
2022/02/25 07:59:27;;;;;;;6.95;2.58;;;;;;;15.61;61.88;98531.34;4988165;28;20033;-62
2022/02/25 08:01:52;;;;;;;6.53;2.38;;;;;;;19.94;67.58;98527.66;4990962;28;20050;-62
2022/02/25 08:04:18;;;;;;;7.65;2.70;;;;;;;18.30;62.11;98533.28;4989349;28;20026;-63
2022/02/25 08:06:45;;;;;;;8.23;2.75;;;;;;;17.33;81.55;98531.38;4988217;28;20031;-63
2022/02/25 08:09:12;;;;;;;8.80;2.92;;;;;;;16.66;57.64;98535.31;4988217;28;20025;-63
2022/02/25 08:11:37;;;;;;;7.47;2.50;;;;;;;19.92;71.68;98535.72;4986441;28;20125;-63
2022/02/25 08:14:03;;;;;;;9.02;3.03;;;;;;;18.26;59.00;98534.44;4989925;28;20172;-61
2022/02/25 08:16:28;;;;;;;13.45;2.85;;;;;;;18.42;59.25;98536.13;4988193;28;20038;-63
2022/02/25 08:18:54;;;;;;;6.30;2.40;;;;;;;19.99;66.87;98531.66;4986821;28;20065;-61
2022/02/25 08:21:19;;;;;;;7.70;2.30;;;;;;;18.49;88.90;98538.25;4986494;28;20046;-65
2022/02/25 08:23:44;;;;;;;8.57;2.70;;;;;;;15.53;54.09;98536.16;4988569;28;20060;-63
2022/02/25 08:26:10;;;;;;;8.25;2.60;;;;;;;17.20;83.11;98548.00;4985952;28;20815;-63
2022/02/25 08:28:36;;;;;;;7.00;2.45;;;;;;;18.44;56.46;98542.97;4987626;28;20787;-61
2022/02/25 08:31:03;;;;;;;7.93;2.58;;;;;;;18.58;69.91;98547.38;4989488;28;20026;-63
2022/02/25 08:33:28;;;;;;;8.60;2.47;;;;;;;15.86;99.26;98551.13;4988226;28;20237;-61
2022/02/25 08:35:53;;;;;;;9.25;2.80;;;;;;;14.49;85.46;98559.78;4988768;28;20034;-61
2022/02/25 08:38:19;;;;;;;7.88;2.88;;;;;;;15.63;72.31;98556.72;4986993;28;20112;-61
2022/02/25 08:40:45;;;;;;;6.93;2.30;;;;;;;20.27;80.25;98561.47;4986783;28;20040;-63
2022/02/25 08:43:10;;;;;;;7.57;2.63;;;;;;;13.89;92.51;98555.53;4986076;28;20539;-62
2022/02/25 08:45:40;;;;;;;6.00;2.22;;;;;;;15.50;100.00;98565.25;4986538;28;20826;-62
2022/02/25 08:48:05;;;;;;;7.93;2.38;;;;;;;18.49;72.11;98558.56;4987574;28;20049;-62
2022/02/25 08:50:31;;;;;;;10.27;2.85;;;;;;;15.90;100.00;98554.41;4988255;28;20064;-61
2022/02/25 08:52:57;;;;;;;8.05;2.55;;;;;;;17.45;77.38;98571.13;4988276;28;20069;-63
2022/02/25 08:55:23;;;;;;;10.18;2.88;;;;;;;15.64;100.00;98561.03;4987218;28;20066;-63
2022/02/25 08:57:50;;;;;;;7.28;2.30;;;;;;;20.56;70.80;98555.88;4989824;28;20030;-61
2022/02/25 09:00:20;;;;;;;8.70;2.72;;;;;;;16.85;49.05;98564.09;4986216;28;20026;-61
2022/02/25 09:02:47;;;;;;;9.07;2.60;;;;;;;16.44;70.55;98562.00;4996162;28;20033;-60
2022/02/25 09:05:13;;;;;;;8.18;2.58;;;;;;;18.10;83.89;98557.47;4984553;28;20038;-64
2022/02/25 09:07:38;;;;;;;7.25;2.20;;;;;;;19.83;67.23;98553.09;4986117;28;20026;-65
2022/02/25 09:10:05;;;;;;;9.18;2.80;;;;;;;20.00;73.73;98551.06;4984987;28;20083;-64
2022/02/25 09:12:32;;;;;;;7.18;2.45;;;;;;;20.74;60.19;98549.25;4985643;28;20041;-64
2022/02/25 09:14:58;;;;;;;9.52;2.53;;;;;;;19.43;58.73;98555.84;4988295;28;20423;-64
2022/02/25 09:17:25;;;;;;;7.30;2.53;;;;;;;18.61;58.00;98554.25;4986242;28;20447;-62
2022/02/25 09:19:51;;;;;;;9.45;2.72;;;;;;;18.34;59.80;98548.94;4986357;28;20040;-63
2022/02/25 09:22:16;;;;;;;7.40;2.40;;;;;;;20.80;56.93;98542.63;4987442;28;20048;-64
2022/02/25 09:24:41;;;;;;;7.05;2.30;;;;;;;18.74;53.97;98538.44;4988206;28;20472;-62
2022/02/25 09:27:07;;;;;;;9.13;2.40;;;;;;;22.06;50.31;98542.78;4988526;28;20056;-64
2022/02/25 09:29:32;;;;;;;6.45;2.15;;;;;;;22.80;54.22;98542.97;4986203;28;20552;-64
2022/02/25 09:31:57;;;;;;;11.75;2.40;;;;;;;19.42;47.46;98548.84;4983565;28;20049;-65
2022/02/25 09:34:23;;;;;;;5.50;2.20;;;;;;;19.19;59.82;98558.34;4988245;28;20062;-64
2022/02/25 09:36:48;;;;;;;8.80;2.67;;;;;;;18.26;55.37;98547.66;4985560;28;20045;-62
2022/02/25 09:39:14;;;;;;;7.15;2.53;;;;;;;19.11;57.76;98543.94;4986790;28;20445;-62
2022/02/25 09:41:41;;;;;;;6.47;2.10;;;;;;;18.92;61.02;98547.81;4983636;28;20977;-64
2022/02/25 09:44:07;;;;;;;6.60;2.30;;;;;;;19.39;60.25;98542.91;4987871;28;20022;-61
2022/02/25 09:46:33;;;;;;;6.90;2.33;;;;;;;19.29;66.03;98553.28;4989201;28;20034;-64
2022/02/25 09:49:00;;;;;;;7.88;2.50;;;;;;;20.23;61.58;98539.66;4987185;28;20400;-62
2022/02/25 09:51:26;;;;;;;8.13;2.40;;;;;;;19.78;53.93;98544.63;4985943;28;20049;-65
2022/02/25 09:53:51;;;;;;;6.97;2.40;;;;;;;18.68;54.31;98547.63;4985414;28;20111;-64
2022/02/25 09:56:17;;;;;;;8.60;2.28;;;;;;;16.93;62.89;98551.34;4984394;28;20562;-62
2022/02/25 09:58:43;;;;;;;7.40;2.13;;;;;;;18.79;61.15;98549.56;4986264;28;20624;-65
2022/02/25 10:01:11;;;;;;;7.88;2.50;;;;;;;15.95;48.27;98545.34;4985179;28;20041;-62
2022/02/25 10:03:36;;;;;;;6.47;2.20;;;;;;;18.88;61.61;98559.56;4988234;28;20081;-64
2022/02/25 10:06:07;;;;;;;7.93;2.45;;;;;;;19.96;59.31;98549.56;4986594;28;20046;-62
2022/02/25 10:08:33;;;;;;;6.65;2.30;;;;;;;17.90;66.32;98562.22;4987243;28;20503;-63
2022/02/25 10:11:00;;;;;;;7.95;2.35;;;;;;;19.48;65.33;98546.72;4986582;28;20121;-64
2022/02/25 10:13:27;;;;;;;7.82;2.38;;;;;;;20.44;60.92;98560.28;4989414;28;20019;-61
2022/02/25 10:15:56;;;;;;;6.85;2.42;;;;;;;18.33;56.27;98563.13;4986822;28;20053;-62
2022/02/25 10:18:26;;;;;;;6.32;2.40;;;;;;;20.07;56.64;98554.97;4986915;28;20870;-64
2022/02/25 10:21:04;;;;;;;7.10;2.03;;;;;;;20.12;57.52;98552.00;4996827;28;20109;-61
2022/02/25 10:23:32;;;;;;;6.22;1.90;;;;;;;21.03;57.68;98553.34;4993346;28;20030;-61
2022/02/25 10:26:14;;;;;;;10.57;2.33;;;;;;;20.46;56.11;98561.00;4990818;28;20038;-61
2022/02/25 10:28:44;;;;;;;6.57;2.00;;;;;;;17.89;63.36;98549.97;4992587;28;20030;-62
2022/02/25 10:31:22;;;;;;;6.47;2.10;;;;;;;20.96;59.26;98551.16;4993266;28;20034;-64
2022/02/25 10:34:16;;;;;;;9.68;2.17;;;;;;;19.03;61.05;98557.69;4994668;28;20048;-62
2022/02/25 10:36:46;;;;;;;7.05;2.10;;;;;;;19.81;59.56;98544.44;4986418;28;20041;-64
2022/02/25 10:39:27;;;;;;;7.85;2.42;;;;;;;20.01;61.76;98550.09;5001677;28;20030;-64
2022/02/25 10:42:02;;;;;;;8.57;2.30;;;;;;;20.05;61.24;98540.13;4991971;28;20050;-64
2022/02/25 10:44:35;;;;;;;9.93;2.50;;;;;;;17.96;55.79;98549.56;4991692;28;20044;-64
2022/02/25 10:47:33;;;;;;;6.95;2.33;;;;;;;20.07;55.10;98547.03;4992200;28;20034;-63
2022/02/25 10:50:09;;;;;;;5.53;2.08;;;;;;;18.93;63.36;98546.88;4984638;28;20038;-64
2022/02/25 10:52:47;;;;;;;6.55;2.15;;;;;;;19.27;58.57;98545.44;4994410;28;20884;-63
2022/02/25 10:55:31;;;;;;;8.95;2.40;;;;;;;16.16;53.70;98555.63;4994524;28;20112;-62
2022/02/25 10:57:57;;;;;;;7.25;2.13;;;;;;;13.61;77.58;98558.56;4992925;28;20026;-63
2022/02/25 11:00:24;;;;;;;7.85;2.20;;;;;;;19.00;64.72;98545.50;4993565;28;20041;-62
2022/02/25 11:02:51;;;;;;;7.43;2.30;;;;;;;20.50;58.51;98543.91;4993905;28;20653;-64
2022/02/25 11:05:24;;;;;;;8.18;2.25;;;;;;;19.25;60.09;98535.94;4992740;28;20416;-61
2022/02/25 11:07:54;;;;;;;7.75;2.30;;;;;;;18.77;60.50;98543.53;4992987;28;20026;-64
2022/02/25 11:10:23;;;;;;;9.15;2.65;;;;;;;18.03;60.94;98550.88;4992560;28;20032;-62
2022/02/25 11:12:50;;;;;;;6.70;2.00;;;;;;;18.57;57.78;98540.38;4993281;28;20088;-64
2022/02/25 11:15:18;;;;;;;8.10;2.35;;;;;;;18.25;51.19;98540.69;4991231;28;20057;-63
2022/02/25 11:17:45;;;;;;;10.93;2.85;;;;;;;18.91;54.40;98527.63;4991606;28;20109;-63
2022/02/25 11:20:13;;;;;;;7.18;2.30;;;;;;;19.50;57.87;98519.22;4993644;28;20036;-63
2022/02/25 11:22:41;;;;;;;9.15;2.35;;;;;;;17.37;55.80;98537.31;4991390;28;20018;-64
2022/02/25 11:25:15;;;;;;;6.93;2.20;;;;;;;17.19;60.61;98533.97;4990909;28;20113;-62
2022/02/25 11:27:42;;;;;;;7.78;2.25;;;;;;;18.47;48.98;98528.72;4991749;28;20073;-64
2022/02/25 11:30:17;;;;;;;7.93;2.30;;;;;;;16.49;61.86;98528.38;4991995;28;20753;-63